createdAt,value
2018-05-31T00:00:19.614Z,0
2018-05-31T00:01:18.784Z,0
2018-05-31T00:02:20.144Z,0
2018-05-31T00:03:19.256Z,0
2018-05-31T00:04:19.265Z,0
2018-05-31T00:05:19.685Z,0
2018-05-31T00:06:20.002Z,0
2018-05-31T00:07:19.680Z,0
2018-05-31T00:08:20.214Z,0
2018-05-31T00:09:20.741Z,0
2018-05-31T00:10:20.949Z,0
2018-05-31T00:11:20.418Z,0
2018-05-31T00:12:22.099Z,0
2018-05-31T00:13:20.838Z,0
2018-05-31T00:14:20.877Z,0
2018-05-31T00:15:21.589Z,0
2018-05-31T00:16:21.150Z,0
2018-05-31T00:17:21.577Z,0
2018-05-31T00:18:21.520Z,0
2018-05-31T00:19:22.099Z,0
2018-05-31T00:20:22.177Z,0
2018-05-31T00:21:24.266Z,0
2018-05-31T00:22:23.342Z,0
2018-05-31T00:23:23.010Z,0
2018-05-31T00:24:23.462Z,0
2018-05-31T00:25:23.889Z,0
2018-05-31T00:26:23.422Z,0
2018-05-31T00:27:23.037Z,0
2018-05-31T00:28:23.201Z,0
2018-05-31T00:29:23.871Z,0
2018-05-31T00:30:24.432Z,0
2018-05-31T00:31:24.837Z,0
2018-05-31T00:32:23.843Z,0
2018-05-31T00:33:24.335Z,0
2018-05-31T00:34:24.035Z,0
2018-05-31T00:35:24.510Z,0
2018-05-31T00:36:24.705Z,0
2018-05-31T00:37:25.269Z,0
2018-05-31T00:38:25.194Z,0
2018-05-31T00:39:25.433Z,0
2018-05-31T00:40:26.257Z,0
2018-05-31T00:41:25.791Z,0
2018-05-31T00:42:25.519Z,0
2018-05-31T00:43:26.067Z,0
2018-05-31T00:44:26.017Z,0
2018-05-31T00:45:26.429Z,0
2018-05-31T00:46:26.606Z,0
2018-05-31T00:47:26.626Z,0
2018-05-31T00:48:27.395Z,0
2018-05-31T00:49:28.179Z,0
2018-05-31T00:50:28.395Z,0
2018-05-31T00:51:27.640Z,0
2018-05-31T00:52:27.520Z,0
2018-05-31T00:53:27.130Z,0
2018-05-31T00:54:27.942Z,0
2018-05-31T00:55:28.458Z,0
2018-05-31T00:56:28.953Z,0
2018-05-31T00:57:28.196Z,0
2018-05-31T00:58:29.118Z,0
2018-05-31T00:59:30.607Z,0
2018-05-31T01:00:29.081Z,0
2018-05-31T01:01:29.122Z,0
2018-05-31T01:02:29.290Z,0
2018-05-31T01:03:29.509Z,0
2018-05-31T01:04:29.849Z,0
2018-05-31T01:05:30.017Z,0
2018-05-31T01:06:29.634Z,0
2018-05-31T01:07:29.879Z,0
2018-05-31T01:08:31.188Z,0
2018-05-31T01:09:30.545Z,0
2018-05-31T01:10:30.395Z,0
2018-05-31T01:11:30.544Z,0
2018-05-31T01:12:30.477Z,0
2018-05-31T01:13:31.069Z,0
2018-05-31T01:14:31.377Z,0
2018-05-31T01:15:31.406Z,0
2018-05-31T01:16:32.058Z,0
2018-05-31T01:17:32.155Z,0
2018-05-31T01:18:31.997Z,0
2018-05-31T01:19:32.169Z,0
2018-05-31T01:20:31.714Z,0
2018-05-31T01:21:31.867Z,0
2018-05-31T01:22:32.065Z,0
2018-05-31T01:23:32.566Z,0
2018-05-31T01:24:32.844Z,0
2018-05-31T01:25:33.283Z,0
2018-05-31T01:26:33.338Z,0
2018-05-31T01:27:34.017Z,0
2018-05-31T01:28:33.392Z,0
2018-05-31T01:29:32.846Z,0
2018-05-31T01:30:33.215Z,0
2018-05-31T01:31:32.912Z,0
2018-05-31T01:32:33.286Z,0
2018-05-31T01:33:32.977Z,0
2018-05-31T01:34:33.456Z,0
2018-05-31T01:35:33.659Z,0
2018-05-31T01:36:34.827Z,0
2018-05-31T01:37:34.887Z,0
2018-05-31T01:38:34.344Z,0
2018-05-31T01:39:34.567Z,0
2018-05-31T01:40:34.564Z,0
2018-05-31T01:41:34.112Z,0
2018-05-31T01:42:34.911Z,0
2018-05-31T01:43:34.648Z,0
2018-05-31T01:44:34.706Z,0
2018-05-31T01:45:34.713Z,0
2018-05-31T01:46:34.601Z,0
2018-05-31T01:47:34.938Z,0
2018-05-31T01:48:35.778Z,0
2018-05-31T01:49:34.940Z,0
2018-05-31T01:50:35.128Z,0
2018-05-31T01:51:35.659Z,0
2018-05-31T01:52:35.420Z,0
2018-05-31T01:53:35.882Z,0
2018-05-31T01:54:37.254Z,0
2018-05-31T01:55:37.644Z,0
2018-05-31T01:56:37.121Z,0
2018-05-31T01:57:36.939Z,0
2018-05-31T01:58:36.989Z,0
2018-05-31T01:59:36.437Z,0
2018-05-31T02:00:36.802Z,0
2018-05-31T02:01:37.410Z,0
2018-05-31T02:02:37.031Z,0
2018-05-31T02:03:37.708Z,0
2018-05-31T02:04:37.075Z,0
2018-05-31T02:05:38.470Z,0
2018-05-31T02:06:37.232Z,0
2018-05-31T02:07:37.935Z,0
2018-05-31T02:08:38.815Z,0
2018-05-31T02:09:38.541Z,0
2018-05-31T02:10:38.442Z,0
2018-05-31T02:11:38.005Z,0
2018-05-31T02:12:38.657Z,0
2018-05-31T02:13:39.537Z,0
2018-05-31T02:14:39.693Z,0
2018-05-31T02:15:38.418Z,0
2018-05-31T02:16:38.452Z,0
2018-05-31T02:17:38.997Z,0
2018-05-31T02:18:39.117Z,0
2018-05-31T02:19:39.709Z,0
2018-05-31T02:20:40.608Z,0
2018-05-31T02:21:41.198Z,0
2018-05-31T02:22:42.122Z,0
2018-05-31T02:23:42.005Z,0
2018-05-31T02:24:40.422Z,0
2018-05-31T02:25:40.878Z,0
2018-05-31T02:26:40.822Z,0
2018-05-31T02:27:41.658Z,0
2018-05-31T02:28:41.385Z,0
2018-05-31T02:29:39.841Z,0
2018-05-31T02:30:40.034Z,0
2018-05-31T02:31:40.529Z,0
2018-05-31T02:32:41.072Z,0
2018-05-31T02:33:40.357Z,0
2018-05-31T02:34:40.206Z,0
2018-05-31T02:35:40.139Z,0
2018-05-31T02:36:40.061Z,0
2018-05-31T02:37:39.852Z,0
2018-05-31T02:38:40.447Z,0
2018-05-31T02:39:40.175Z,0
2018-05-31T02:40:41.518Z,0
2018-05-31T02:41:41.297Z,0
2018-05-31T02:42:41.144Z,0
2018-05-31T02:43:40.990Z,0
2018-05-31T02:44:41.278Z,0
2018-05-31T02:45:41.256Z,0
2018-05-31T02:46:40.985Z,0
2018-05-31T02:47:41.013Z,0
2018-05-31T02:48:41.057Z,0
2018-05-31T02:49:41.322Z,0
2018-05-31T02:50:42.487Z,5
2018-05-31T02:51:41.407Z,5
2018-05-31T02:52:41.421Z,5
2018-05-31T02:53:41.218Z,5
2018-05-31T02:54:41.491Z,5
2018-05-31T02:55:41.484Z,5
2018-05-31T02:56:42.178Z,5
2018-05-31T02:57:42.063Z,5
2018-05-31T02:58:42.382Z,5
2018-05-31T02:59:43.333Z,5
2018-05-31T03:00:42.452Z,5
2018-05-31T03:01:42.153Z,10
2018-05-31T03:02:42.160Z,10
2018-05-31T03:03:42.408Z,10
2018-05-31T03:04:42.145Z,10
2018-05-31T03:05:42.613Z,10
2018-05-31T03:06:42.385Z,10
2018-05-31T03:07:42.788Z,10
2018-05-31T03:08:43.668Z,10
2018-05-31T03:09:43.641Z,15
2018-05-31T03:10:42.222Z,15
2018-05-31T03:11:43.090Z,15
2018-05-31T03:12:42.339Z,15
2018-05-31T03:13:42.888Z,15
2018-05-31T03:14:42.627Z,15
2018-05-31T03:15:43.418Z,20
2018-05-31T03:16:43.427Z,20
2018-05-31T03:17:44.069Z,20
2018-05-31T03:18:43.594Z,20
2018-05-31T03:19:42.968Z,20
2018-05-31T03:20:43.427Z,20
2018-05-31T03:21:43.898Z,25
2018-05-31T03:22:44.055Z,25
2018-05-31T03:23:44.568Z,25
2018-05-31T03:24:44.626Z,25
2018-05-31T03:25:44.829Z,25
2018-05-31T03:26:45.290Z,25
2018-05-31T03:27:44.388Z,30
2018-05-31T03:28:44.704Z,30
2018-05-31T03:29:45.142Z,30
2018-05-31T03:30:44.968Z,30
2018-05-31T03:31:45.308Z,35
2018-05-31T03:32:45.280Z,35
2018-05-31T03:33:45.339Z,35
2018-05-31T03:34:45.552Z,35
2018-05-31T03:35:46.004Z,40
2018-05-31T03:36:46.903Z,40
2018-05-31T03:37:45.626Z,40
2018-05-31T03:38:45.517Z,40
2018-05-31T03:39:45.557Z,40
2018-05-31T03:40:46.342Z,45
2018-05-31T03:41:46.032Z,45
2018-05-31T03:42:46.281Z,45
2018-05-31T03:43:46.307Z,45
2018-05-31T03:44:46.003Z,45
2018-05-31T03:45:47.266Z,45
2018-05-31T03:46:46.389Z,50
2018-05-31T03:47:47.381Z,50
2018-05-31T03:48:46.962Z,50
2018-05-31T03:49:46.849Z,50
2018-05-31T03:50:47.296Z,50
2018-05-31T03:51:47.723Z,55
2018-05-31T03:52:47.208Z,55
2018-05-31T03:53:47.965Z,55
2018-05-31T03:54:48.096Z,55
2018-05-31T03:55:47.306Z,60
2018-05-31T03:56:47.640Z,60
2018-05-31T03:57:47.647Z,60
2018-05-31T03:58:48.730Z,60
2018-05-31T03:59:48.395Z,65
2018-05-31T04:00:48.672Z,65
2018-05-31T04:01:48.594Z,65
2018-05-31T04:02:48.389Z,70
2018-05-31T04:03:50.043Z,70
2018-05-31T04:04:49.152Z,75
2018-05-31T04:05:48.966Z,75
2018-05-31T04:06:49.006Z,75
2018-05-31T04:07:48.837Z,80
2018-05-31T04:08:49.623Z,80
2018-05-31T04:09:49.669Z,80
2018-05-31T04:10:49.118Z,85
2018-05-31T04:11:50.243Z,90
2018-05-31T04:12:51.137Z,90
2018-05-31T04:13:50.351Z,100
2018-05-31T04:14:49.422Z,105
2018-05-31T04:15:49.844Z,100
2018-05-31T04:16:50.299Z,110
2018-05-31T04:17:49.939Z,125
2018-05-31T04:18:51.092Z,145
2018-05-31T04:19:50.565Z,160
2018-05-31T04:20:51.028Z,160
2018-05-31T04:21:51.510Z,160
2018-05-31T04:22:53.508Z,145
2018-05-31T04:23:51.868Z,145
2018-05-31T04:24:52.729Z,135
2018-05-31T04:25:51.919Z,120
2018-05-31T04:26:53.547Z,120
2018-05-31T04:27:52.812Z,120
2018-05-31T04:28:52.576Z,125
2018-05-31T04:29:53.470Z,125
2018-05-31T04:30:53.846Z,125
2018-05-31T04:31:54.036Z,130
2018-05-31T04:32:53.445Z,125
2018-05-31T04:33:53.858Z,125
2018-05-31T04:34:53.713Z,130
2018-05-31T04:35:53.011Z,130
2018-05-31T04:36:53.520Z,140
2018-05-31T04:37:53.794Z,140
2018-05-31T04:38:53.560Z,140
2018-05-31T04:39:54.462Z,140
2018-05-31T04:40:54.773Z,140
2018-05-31T04:41:54.107Z,140
2018-05-31T04:42:53.322Z,140
2018-05-31T04:43:54.246Z,140
2018-05-31T04:44:53.935Z,145
2018-05-31T04:45:55.281Z,145
2018-05-31T04:46:54.715Z,145
2018-05-31T04:47:55.498Z,150
2018-05-31T04:48:57.097Z,150
2018-05-31T04:49:56.987Z,150
2018-05-31T04:50:55.298Z,155
2018-05-31T04:51:55.374Z,155
2018-05-31T04:52:55.616Z,160
2018-05-31T04:53:55.417Z,160
2018-05-31T04:54:55.460Z,160
2018-05-31T04:55:55.675Z,165
2018-05-31T04:56:55.317Z,165
2018-05-31T04:57:55.341Z,165
2018-05-31T04:58:56.933Z,165
2018-05-31T04:59:55.538Z,170
2018-05-31T05:00:55.311Z,170
2018-05-31T05:01:56.178Z,170
2018-05-31T05:02:57.477Z,170
2018-05-31T05:03:56.416Z,170
2018-05-31T05:04:56.761Z,175
2018-05-31T05:05:56.504Z,175
2018-05-31T05:06:56.553Z,175
2018-05-31T05:07:57.537Z,180
2018-05-31T05:08:56.321Z,185
2018-05-31T05:09:55.539Z,190
2018-05-31T05:10:56.473Z,185
2018-05-31T05:11:56.712Z,190
2018-05-31T05:12:56.170Z,195
2018-05-31T05:13:56.336Z,195
2018-05-31T05:14:56.657Z,195
2018-05-31T05:15:57.346Z,195
2018-05-31T05:16:58.293Z,195
2018-05-31T05:17:58.074Z,200
2018-05-31T05:18:58.126Z,210
2018-05-31T05:19:58.243Z,220
2018-05-31T05:20:57.969Z,235
2018-05-31T05:21:57.579Z,270
2018-05-31T05:22:58.484Z,290
2018-05-31T05:23:58.200Z,290
2018-05-31T05:24:59.245Z,305
2018-05-31T05:26:00.044Z,305
2018-05-31T05:26:59.627Z,285
2018-05-31T05:27:58.763Z,275
2018-05-31T05:28:59.517Z,265
2018-05-31T05:29:59.263Z,275
2018-05-31T05:30:59.497Z,290
2018-05-31T05:31:59.677Z,295
2018-05-31T05:33:00.235Z,305
2018-05-31T05:34:00.273Z,305
2018-05-31T05:35:01.305Z,295
2018-05-31T05:36:00.178Z,285
2018-05-31T05:37:00.982Z,270
2018-05-31T05:38:00.270Z,255
2018-05-31T05:39:00.556Z,245
2018-05-31T05:40:00.809Z,245
2018-05-31T05:41:01.089Z,245
2018-05-31T05:42:00.853Z,245
2018-05-31T05:43:01.354Z,245
2018-05-31T05:44:01.944Z,250
2018-05-31T05:45:01.186Z,250
2018-05-31T05:46:01.473Z,250
2018-05-31T05:47:02.199Z,270
2018-05-31T05:48:01.427Z,290
2018-05-31T05:49:01.866Z,310
2018-05-31T05:50:02.298Z,315
2018-05-31T05:51:02.025Z,320
2018-05-31T05:52:02.484Z,305
2018-05-31T05:53:03.376Z,310
2018-05-31T05:54:03.775Z,290
2018-05-31T05:55:03.427Z,300
2018-05-31T05:56:03.307Z,315
2018-05-31T05:57:03.252Z,310
2018-05-31T05:58:03.819Z,310
2018-05-31T05:59:04.005Z,295
2018-05-31T06:00:09.977Z,295
2018-05-31T06:01:03.691Z,295
2018-05-31T06:02:04.255Z,305
2018-05-31T06:03:04.866Z,315
2018-05-31T06:04:05.054Z,325
2018-05-31T06:05:05.500Z,335
2018-05-31T06:06:05.621Z,335
2018-05-31T06:07:04.952Z,340
2018-05-31T06:08:04.488Z,330
2018-05-31T06:09:05.388Z,340
2018-05-31T06:10:06.346Z,350
2018-05-31T06:11:06.358Z,370
2018-05-31T06:12:06.112Z,435
2018-05-31T06:13:04.614Z,720
2018-05-31T06:14:05.550Z,1020
2018-05-31T06:15:06.490Z,1390
2018-05-31T06:16:05.948Z,960
2018-05-31T06:17:06.266Z,1450
2018-05-31T06:18:05.666Z,1455
2018-05-31T06:19:05.766Z,1465
2018-05-31T06:20:06.355Z,1440
2018-05-31T06:21:06.615Z,1440
2018-05-31T06:22:05.293Z,1455
2018-05-31T06:23:05.821Z,1550
2018-05-31T06:24:06.182Z,1570
2018-05-31T06:25:06.195Z,1580
2018-05-31T06:26:05.940Z,1545
2018-05-31T06:27:05.973Z,1495
2018-05-31T06:28:06.336Z,1550
2018-05-31T06:29:07.273Z,1625
2018-05-31T06:30:06.286Z,1615
2018-05-31T06:31:06.160Z,1645
2018-05-31T06:32:05.901Z,1655
2018-05-31T06:33:06.151Z,1615
2018-05-31T06:34:06.400Z,1610
2018-05-31T06:35:06.675Z,1645
2018-05-31T06:36:07.418Z,1665
2018-05-31T06:37:07.282Z,1615
2018-05-31T06:38:07.502Z,1685
2018-05-31T06:39:07.534Z,1700
2018-05-31T06:40:07.362Z,1700
2018-05-31T06:41:07.628Z,1690
2018-05-31T06:42:07.127Z,1680
2018-05-31T06:43:07.865Z,1690
2018-05-31T06:44:07.565Z,1745
2018-05-31T06:45:07.837Z,1740
2018-05-31T06:46:07.754Z,1780
2018-05-31T06:47:08.223Z,1755
2018-05-31T06:48:09.129Z,1780
2018-05-31T06:49:08.574Z,1845
2018-05-31T06:50:08.558Z,1855
2018-05-31T06:51:08.975Z,1810
2018-05-31T06:52:08.938Z,1780
2018-05-31T06:53:08.295Z,1775
2018-05-31T06:54:09.062Z,1810
2018-05-31T06:55:08.788Z,1825
2018-05-31T06:56:09.490Z,1810
2018-05-31T06:57:09.403Z,1835
2018-05-31T06:58:08.938Z,1885
2018-05-31T06:59:09.136Z,1870
2018-05-31T07:00:22.066Z,1805
2018-05-31T07:01:09.381Z,1760
2018-05-31T07:02:09.689Z,1810
2018-05-31T07:03:10.181Z,1900
2018-05-31T07:04:10.655Z,1880
2018-05-31T07:05:10.554Z,1835
2018-05-31T07:06:10.798Z,1380
2018-05-31T07:07:11.322Z,840
2018-05-31T07:08:11.052Z,720
2018-05-31T07:09:11.292Z,700
2018-05-31T07:10:11.910Z,690
2018-05-31T07:11:12.805Z,680
2018-05-31T07:12:11.581Z,675
2018-05-31T07:13:12.093Z,670
2018-05-31T07:14:12.372Z,670
2018-05-31T07:15:12.340Z,680
2018-05-31T07:16:12.967Z,675
2018-05-31T07:17:12.988Z,675
2018-05-31T07:18:12.837Z,680
2018-05-31T07:19:13.583Z,685
2018-05-31T07:20:13.954Z,695
2018-05-31T07:21:14.305Z,715
2018-05-31T07:22:13.442Z,875
2018-05-31T07:23:14.305Z,1555
2018-05-31T07:24:13.764Z,1770
2018-05-31T07:25:14.157Z,2050
2018-05-31T07:26:15.007Z,2100
2018-05-31T07:27:14.849Z,2125
2018-05-31T07:28:15.318Z,2100
2018-05-31T07:29:15.020Z,2155
2018-05-31T07:30:15.832Z,2200
2018-05-31T07:31:15.630Z,2170
2018-05-31T07:32:16.481Z,2200
2018-05-31T07:33:16.270Z,2170
2018-05-31T07:34:16.469Z,2140
2018-05-31T07:35:16.956Z,2200
2018-05-31T07:36:17.093Z,2180
2018-05-31T07:37:17.199Z,2135
2018-05-31T07:38:17.779Z,2135
2018-05-31T07:39:18.132Z,2185
2018-05-31T07:40:17.798Z,2175
2018-05-31T07:41:17.943Z,2215
2018-05-31T07:42:17.925Z,2325
2018-05-31T07:43:18.250Z,2290
2018-05-31T07:44:18.132Z,2220
2018-05-31T07:45:18.022Z,2205
2018-05-31T07:46:18.127Z,2270
2018-05-31T07:47:18.547Z,2280
2018-05-31T07:48:18.175Z,2360
2018-05-31T07:49:18.961Z,2360
2018-05-31T07:50:18.761Z,2355
2018-05-31T07:51:19.062Z,2365
2018-05-31T07:52:18.595Z,2335
2018-05-31T07:53:19.401Z,2325
2018-05-31T07:54:19.315Z,2295
2018-05-31T07:55:19.773Z,2315
2018-05-31T07:56:20.054Z,2385
2018-05-31T07:57:20.234Z,2395
2018-05-31T07:58:21.022Z,2320
2018-05-31T07:59:20.518Z,2285
2018-05-31T08:00:24.918Z,2320
2018-05-31T08:01:24.980Z,2380
2018-05-31T08:02:24.768Z,2410
2018-05-31T08:03:25.270Z,2400
2018-05-31T08:04:25.204Z,2485
2018-05-31T08:05:25.776Z,2515
2018-05-31T08:06:25.650Z,2490
2018-05-31T08:07:26.165Z,2460
2018-05-31T08:08:26.378Z,2405
2018-05-31T08:09:26.240Z,2410
2018-05-31T08:10:25.777Z,2435
2018-05-31T08:11:26.082Z,2500
2018-05-31T08:12:26.004Z,2370
2018-05-31T08:13:26.738Z,2100
2018-05-31T08:14:26.778Z,2230
2018-05-31T08:15:26.579Z,2495
2018-05-31T08:16:26.739Z,2505
2018-05-31T08:17:26.414Z,2645
2018-05-31T08:18:27.269Z,2610
2018-05-31T08:19:27.315Z,2510
2018-05-31T08:20:27.210Z,2405
2018-05-31T08:21:27.143Z,2480
2018-05-31T08:22:27.406Z,2560
2018-05-31T08:23:27.670Z,2655
2018-05-31T08:24:27.429Z,2625
2018-05-31T08:25:27.621Z,2485
2018-05-31T08:26:30.456Z,2510
2018-05-31T08:27:28.769Z,2625
2018-05-31T08:28:28.584Z,2670
2018-05-31T08:29:28.942Z,2660
2018-05-31T08:30:28.973Z,2640
2018-05-31T08:31:28.195Z,2575
2018-05-31T08:32:28.982Z,2530
2018-05-31T08:33:28.811Z,2620
2018-05-31T08:34:28.839Z,2680
2018-05-31T08:35:29.747Z,2710
2018-05-31T08:36:29.099Z,2655
2018-05-31T08:37:29.541Z,2600
2018-05-31T08:38:29.444Z,2625
2018-05-31T08:39:30.367Z,2670
2018-05-31T08:40:30.091Z,2810
2018-05-31T08:41:31.091Z,2825
2018-05-31T08:42:30.867Z,2835
2018-05-31T08:43:30.304Z,2820
2018-05-31T08:44:30.444Z,2900
2018-05-31T08:45:29.956Z,2925
2018-05-31T08:46:29.790Z,2990
2018-05-31T08:47:31.553Z,3125
2018-05-31T08:48:30.737Z,3005
2018-05-31T08:49:31.909Z,2830
2018-05-31T08:50:30.544Z,2770
2018-05-31T08:51:30.333Z,2855
2018-05-31T08:52:30.648Z,2885
2018-05-31T08:53:30.567Z,2800
2018-05-31T08:54:31.339Z,2865
2018-05-31T08:55:31.935Z,2980
2018-05-31T08:56:31.517Z,3180
2018-05-31T08:57:31.635Z,3265
2018-05-31T08:58:31.516Z,3185
2018-05-31T08:59:30.974Z,2960
2018-05-31T09:00:31.757Z,2800
2018-05-31T09:01:31.335Z,2930
2018-05-31T09:02:31.436Z,3090
2018-05-31T09:03:32.580Z,3050
2018-05-31T09:04:31.475Z,3045
2018-05-31T09:05:31.764Z,3150
2018-05-31T09:06:31.951Z,2910
2018-05-31T09:07:32.013Z,3015
2018-05-31T09:08:32.511Z,3010
2018-05-31T09:09:32.412Z,2795
2018-05-31T09:10:32.622Z,2960
2018-05-31T09:11:32.726Z,3075
2018-05-31T09:12:32.444Z,3025
2018-05-31T09:13:32.919Z,2795
2018-05-31T09:14:33.407Z,2905
2018-05-31T09:15:33.366Z,3205
2018-05-31T09:16:33.676Z,3100
2018-05-31T09:17:34.316Z,3065
2018-05-31T09:18:34.308Z,3125
2018-05-31T09:19:33.847Z,2915
2018-05-31T09:20:34.339Z,2815
2018-05-31T09:21:34.568Z,2895
2018-05-31T09:22:34.883Z,2930
2018-05-31T09:23:34.707Z,2910
2018-05-31T09:24:34.695Z,3020
2018-05-31T09:25:34.395Z,2970
2018-05-31T09:26:35.484Z,3050
2018-05-31T09:27:35.641Z,3165
2018-05-31T09:28:36.091Z,2975
2018-05-31T09:29:35.853Z,2880
2018-05-31T09:30:35.846Z,2905
2018-05-31T09:31:35.626Z,2760
2018-05-31T09:32:37.697Z,2940
2018-05-31T09:33:36.048Z,2975
2018-05-31T09:34:35.362Z,2855
2018-05-31T09:35:35.651Z,2855
2018-05-31T09:36:36.215Z,2695
2018-05-31T09:37:36.503Z,2610
2018-05-31T09:38:36.331Z,2645
2018-05-31T09:39:36.327Z,2695
2018-05-31T09:40:36.565Z,2590
2018-05-31T09:41:36.345Z,2535
2018-05-31T09:42:36.836Z,2650
2018-05-31T09:43:37.421Z,3130
2018-05-31T09:44:37.448Z,3150
2018-05-31T09:45:37.218Z,2480
2018-05-31T09:46:38.169Z,2615
2018-05-31T09:47:37.494Z,2630
2018-05-31T09:48:37.490Z,2075
2018-05-31T09:49:38.056Z,1580
2018-05-31T09:50:37.843Z,1575
2018-05-31T09:51:38.337Z,1500
2018-05-31T09:52:38.792Z,1375
2018-05-31T09:53:39.001Z,1525
2018-05-31T09:54:39.015Z,1760
2018-05-31T09:55:39.848Z,1920
2018-05-31T09:56:39.806Z,2070
2018-05-31T09:57:39.974Z,2180
2018-05-31T09:58:39.527Z,2275
2018-05-31T09:59:39.818Z,2475
2018-05-31T10:00:39.766Z,2590
2018-05-31T10:01:39.931Z,2555
2018-05-31T10:02:40.325Z,2570
2018-05-31T10:03:40.793Z,2690
2018-05-31T10:04:40.627Z,2650
2018-05-31T10:05:40.330Z,2820
2018-05-31T10:06:40.365Z,2900
2018-05-31T10:07:41.096Z,2770
2018-05-31T10:08:40.846Z,2790
2018-05-31T10:09:40.995Z,2910
2018-05-31T10:10:41.668Z,2880
2018-05-31T10:11:41.467Z,2865
2018-05-31T10:12:42.128Z,2895
2018-05-31T10:13:41.731Z,2875
2018-05-31T10:14:42.233Z,2895
2018-05-31T10:15:42.229Z,3130
2018-05-31T10:16:42.828Z,3145
2018-05-31T10:17:42.884Z,3020
2018-05-31T10:18:42.583Z,2990
2018-05-31T10:19:42.318Z,2830
2018-05-31T10:20:42.770Z,2570
2018-05-31T10:21:43.202Z,2565
2018-05-31T10:22:43.125Z,2180
2018-05-31T10:23:43.442Z,2595
2018-05-31T10:24:43.684Z,3100
2018-05-31T10:25:43.983Z,3125
2018-05-31T10:26:44.681Z,3035
2018-05-31T10:27:45.675Z,3105
2018-05-31T10:28:44.797Z,3100
2018-05-31T10:29:45.130Z,3020
2018-05-31T10:30:45.333Z,3080
2018-05-31T10:31:44.536Z,3020
2018-05-31T10:32:45.098Z,3030
2018-05-31T10:33:45.685Z,2895
2018-05-31T10:34:46.232Z,2990
2018-05-31T10:35:45.374Z,2895
2018-05-31T10:36:45.917Z,2835
2018-05-31T10:37:46.548Z,2665
2018-05-31T10:38:46.216Z,2810
2018-05-31T10:39:46.152Z,2900
2018-05-31T10:40:46.202Z,2775
2018-05-31T10:41:45.700Z,2745
2018-05-31T10:42:46.980Z,2690
2018-05-31T10:43:46.861Z,2770
2018-05-31T10:44:47.429Z,3090
2018-05-31T10:45:46.445Z,2630
2018-05-31T10:46:47.780Z,2315
2018-05-31T10:47:47.541Z,2580
2018-05-31T10:48:47.947Z,2930
2018-05-31T10:49:47.234Z,2845
2018-05-31T10:50:47.744Z,1910
2018-05-31T10:51:47.818Z,905
2018-05-31T10:52:48.530Z,585
2018-05-31T10:53:47.515Z,635
2018-05-31T10:54:47.361Z,635
2018-05-31T10:55:48.140Z,735
2018-05-31T10:56:47.926Z,680
2018-05-31T10:57:48.961Z,635
2018-05-31T10:58:48.400Z,570
2018-05-31T10:59:48.543Z,625
2018-05-31T11:00:48.781Z,610
2018-05-31T11:01:48.369Z,615
2018-05-31T11:02:48.773Z,635
2018-05-31T11:03:49.089Z,675
2018-05-31T11:04:49.535Z,665
2018-05-31T11:05:49.797Z,630
2018-05-31T11:06:50.229Z,635
2018-05-31T11:07:50.375Z,580
2018-05-31T11:08:50.544Z,595
2018-05-31T11:09:50.394Z,575
2018-05-31T11:10:50.505Z,570
2018-05-31T11:11:49.996Z,580
2018-05-31T11:12:50.357Z,580
2018-05-31T11:13:50.211Z,570
2018-05-31T11:14:50.603Z,550
2018-05-31T11:15:50.519Z,520
2018-05-31T11:16:50.914Z,465
2018-05-31T11:17:50.850Z,410
2018-05-31T11:18:51.326Z,405
2018-05-31T11:19:51.917Z,400
2018-05-31T11:20:51.707Z,405
2018-05-31T11:21:51.898Z,400
2018-05-31T11:22:51.432Z,385
2018-05-31T11:23:51.580Z,395
2018-05-31T11:24:51.993Z,390
2018-05-31T11:25:51.638Z,395
2018-05-31T11:26:52.739Z,390
2018-05-31T11:27:52.671Z,385
2018-05-31T11:28:52.787Z,375
2018-05-31T11:29:52.579Z,355
2018-05-31T11:30:53.096Z,345
2018-05-31T11:31:53.523Z,340
2018-05-31T11:32:52.812Z,335
2018-05-31T11:33:53.265Z,330
2018-05-31T11:34:53.611Z,320
2018-05-31T11:35:53.587Z,320
2018-05-31T11:36:54.149Z,325
2018-05-31T11:37:53.542Z,325
2018-05-31T11:38:53.830Z,315
2018-05-31T11:39:54.201Z,315
2018-05-31T11:40:54.257Z,310
2018-05-31T11:41:54.072Z,310
2018-05-31T11:42:53.604Z,310
2018-05-31T11:43:53.770Z,305
2018-05-31T11:44:54.280Z,305
2018-05-31T11:45:54.325Z,300
2018-05-31T11:46:55.075Z,300
2018-05-31T11:47:54.786Z,300
2018-05-31T11:48:55.134Z,300
2018-05-31T11:49:54.979Z,305
2018-05-31T11:50:55.841Z,305
2018-05-31T11:51:55.819Z,315
2018-05-31T11:52:56.091Z,320
2018-05-31T11:53:56.011Z,320
2018-05-31T11:54:56.195Z,320
2018-05-31T11:55:56.587Z,310
2018-05-31T11:56:57.119Z,305
2018-05-31T11:57:57.204Z,290
2018-05-31T11:58:57.237Z,300
2018-05-31T11:59:56.955Z,305
2018-05-31T12:00:57.492Z,300
2018-05-31T12:01:57.160Z,310
2018-05-31T12:02:56.775Z,310
2018-05-31T12:03:57.787Z,325
2018-05-31T12:04:57.243Z,340
2018-05-31T12:05:57.712Z,350
2018-05-31T12:06:58.127Z,365
2018-05-31T12:07:58.117Z,355
2018-05-31T12:08:58.599Z,350
2018-05-31T12:09:58.776Z,310
2018-05-31T12:10:59.621Z,285
2018-05-31T12:11:59.250Z,275
2018-05-31T12:13:00.567Z,280
2018-05-31T12:14:00.308Z,275
2018-05-31T12:15:00.030Z,270
2018-05-31T12:16:00.709Z,275
2018-05-31T12:17:01.150Z,275
2018-05-31T12:18:02.091Z,270
2018-05-31T12:19:00.678Z,265
2018-05-31T12:20:01.246Z,265
2018-05-31T12:21:01.622Z,245
2018-05-31T12:22:01.505Z,260
2018-05-31T12:23:01.559Z,275
2018-05-31T12:24:02.250Z,275
2018-05-31T12:25:02.089Z,275
2018-05-31T12:26:02.848Z,270
2018-05-31T12:27:02.753Z,265
2018-05-31T12:28:04.185Z,265
2018-05-31T12:29:03.358Z,260
2018-05-31T12:30:02.993Z,255
2018-05-31T12:31:03.579Z,255
2018-05-31T12:32:03.880Z,250
2018-05-31T12:33:03.584Z,260
2018-05-31T12:34:03.230Z,260
2018-05-31T12:35:03.647Z,265
2018-05-31T12:36:03.913Z,255
2018-05-31T12:37:03.670Z,255
2018-05-31T12:38:03.678Z,255
2018-05-31T12:39:04.248Z,260
2018-05-31T12:40:03.743Z,270
2018-05-31T12:41:04.656Z,270
2018-05-31T12:42:04.159Z,265
2018-05-31T12:43:04.448Z,260
2018-05-31T12:44:04.930Z,260
2018-05-31T12:45:04.705Z,265
2018-05-31T12:46:05.196Z,265
2018-05-31T12:47:04.407Z,265
2018-05-31T12:48:05.470Z,265
2018-05-31T12:49:05.192Z,260
2018-05-31T12:50:05.677Z,255
2018-05-31T12:51:05.342Z,250
2018-05-31T12:52:05.713Z,250
2018-05-31T12:53:05.770Z,255
2018-05-31T12:54:06.074Z,250
2018-05-31T12:55:06.581Z,255
2018-05-31T12:56:06.358Z,255
2018-05-31T12:57:06.766Z,260
2018-05-31T12:58:06.999Z,265
2018-05-31T12:59:07.563Z,265
2018-05-31T13:00:10.030Z,270
2018-05-31T13:01:06.835Z,270
2018-05-31T13:02:06.647Z,265
2018-05-31T13:03:07.506Z,275
2018-05-31T13:04:08.657Z,280
2018-05-31T13:05:07.292Z,285
2018-05-31T13:06:08.864Z,300
2018-05-31T13:07:09.231Z,305
2018-05-31T13:08:07.526Z,300
2018-05-31T13:09:08.164Z,300
2018-05-31T13:10:09.675Z,290
2018-05-31T13:11:09.613Z,290
2018-05-31T13:12:09.557Z,290
2018-05-31T13:13:10.046Z,275
2018-05-31T13:14:10.020Z,265
2018-05-31T13:15:10.068Z,245
2018-05-31T13:16:09.381Z,230
2018-05-31T13:17:09.457Z,225
2018-05-31T13:18:09.445Z,220
2018-05-31T13:19:08.361Z,220
2018-05-31T13:20:08.799Z,225
2018-05-31T13:21:08.216Z,225
2018-05-31T13:22:08.809Z,230
2018-05-31T13:23:09.343Z,230
2018-05-31T13:24:10.045Z,225
2018-05-31T13:25:09.634Z,220
2018-05-31T13:26:09.045Z,215
2018-05-31T13:27:09.196Z,210
2018-05-31T13:28:09.306Z,215
2018-05-31T13:29:09.073Z,215
2018-05-31T13:30:09.284Z,225
2018-05-31T13:31:09.738Z,235
2018-05-31T13:32:09.211Z,235
2018-05-31T13:33:08.921Z,245
2018-05-31T13:34:09.665Z,245
2018-05-31T13:35:09.593Z,230
2018-05-31T13:36:10.002Z,225
2018-05-31T13:37:11.699Z,225
2018-05-31T13:38:10.984Z,235
2018-05-31T13:39:10.269Z,240
2018-05-31T13:40:10.388Z,235
2018-05-31T13:41:10.451Z,220
2018-05-31T13:42:11.477Z,225
2018-05-31T13:43:10.551Z,230
2018-05-31T13:44:09.327Z,235
2018-05-31T13:45:10.127Z,235
2018-05-31T13:46:10.374Z,240
2018-05-31T13:47:10.555Z,255
2018-05-31T13:48:11.221Z,270
2018-05-31T13:49:10.447Z,285
2018-05-31T13:50:11.007Z,305
2018-05-31T13:51:10.651Z,300
2018-05-31T13:52:11.197Z,295
2018-05-31T13:53:11.434Z,285
2018-05-31T13:54:10.912Z,285